Terminal Aerodrome Forecast
Issued by NWS

Home | Current Version | Previous Version | Text Only | Print | Product List | Glossary On
Versions: 1 2 3 4 5 6 7 8 9 10 11 12
000
FTUS44 KLIX 210500
TAFGPT
TAF
KGPT 210525Z 2106/2206 VRB03KT P6SM SCT250
     FM211500 VRB05KT P6SM SCT035
     FM211800 20007KT P6SM SCT040
     FM220000 21007KT P6SM SCT250=

USA.gov is the U.S. government's official web portal to all federal, state and local government web resources and services.